sensor_id;sensor_type;location;lat;lon;timestamp;P1;durP1;ratioP1;P2;durP2;ratioP2
14516;SDS011;7344;50.864;4.362;2022-09-30T00:01:16;22.80;;;16.10;;
14516;SDS011;7344;50.864;4.362;2022-09-30T00:03:42;22.80;;;17.67;;
14516;SDS011;7344;50.864;4.362;2022-09-30T00:06:08;20.13;;;16.50;;
14516;SDS011;7344;50.864;4.362;2022-09-30T00:08:35;19.63;;;16.87;;
14516;SDS011;7344;50.864;4.362;2022-09-30T00:11:10;19.97;;;16.60;;
14516;SDS011;7344;50.864;4.362;2022-09-30T00:13:44;20.23;;;16.27;;
14516;SDS011;7344;50.864;4.362;2022-09-30T00:16:12;19.77;;;16.53;;
14516;SDS011;7344;50.864;4.362;2022-09-30T00:18:39;19.43;;;17.30;;
14516;SDS011;7344;50.864;4.362;2022-09-30T00:21:06;22.03;;;17.53;;
14516;SDS011;7344;50.864;4.362;2022-09-30T00:23:33;28.57;;;22.90;;
14516;SDS011;7344;50.864;4.362;2022-09-30T00:26:03;36.83;;;25.97;;
14516;SDS011;7344;50.864;4.362;2022-09-30T00:28:31;24.33;;;20.10;;
14516;SDS011;7344;50.864;4.362;2022-09-30T00:30:57;27.30;;;19.90;;
14516;SDS011;7344;50.864;4.362;2022-09-30T00:33:24;23.30;;;18.70;;
14516;SDS011;7344;50.864;4.362;2022-09-30T00:35:50;23.10;;;17.90;;
14516;SDS011;7344;50.864;4.362;2022-09-30T00:38:16;21.20;;;17.70;;
14516;SDS011;7344;50.864;4.362;2022-09-30T00:40:43;21.00;;;17.77;;
14516;SDS011;7344;50.864;4.362;2022-09-30T00:43:13;20.57;;;16.33;;
14516;SDS011;7344;50.864;4.362;2022-09-30T00:45:48;17.63;;;15.83;;
14516;SDS011;7344;50.864;4.362;2022-09-30T00:48:23;18.27;;;15.73;;
14516;SDS011;7344;50.864;4.362;2022-09-30T00:50:54;19.43;;;16.10;;
14516;SDS011;7344;50.864;4.362;2022-09-30T00:53:27;18.43;;;15.97;;
14516;SDS011;7344;50.864;4.362;2022-09-30T01:01:16;18.43;;;15.60;;
14516;SDS011;7344;50.864;4.362;2022-09-30T01:03:47;17.70;;;16.00;;
14516;SDS011;7344;50.864;4.362;2022-09-30T01:06:19;18.03;;;16.07;;
14516;SDS011;7344;50.864;4.362;2022-09-30T01:08:46;18.93;;;16.87;;
14516;SDS011;7344;50.864;4.362;2022-09-30T01:11:12;18.83;;;16.10;;
14516;SDS011;7344;50.864;4.362;2022-09-30T01:13:39;22.00;;;16.10;;
14516;SDS011;7344;50.864;4.362;2022-09-30T01:18:59;17.77;;;15.87;;
14516;SDS011;7344;50.864;4.362;2022-09-30T01:21:58;20.30;;;17.17;;
14516;SDS011;7344;50.864;4.362;2022-09-30T01:30:12;19.70;;;15.87;;
14516;SDS011;7344;50.864;4.362;2022-09-30T01:38:27;19.17;;;15.53;;
14516;SDS011;7344;50.864;4.362;2022-09-30T01:41:13;19.70;;;15.53;;
14516;SDS011;7344;50.864;4.362;2022-09-30T01:44:00;18.40;;;15.53;;
14516;SDS011;7344;50.864;4.362;2022-09-30T01:49:07;16.87;;;14.67;;
14516;SDS011;7344;50.864;4.362;2022-09-30T01:56:45;18.70;;;15.43;;
14516;SDS011;7344;50.864;4.362;2022-09-30T01:59:25;18.37;;;16.37;;
14516;SDS011;7344;50.864;4.362;2022-09-30T02:01:57;21.50;;;17.00;;
14516;SDS011;7344;50.864;4.362;2022-09-30T02:04:38;20.93;;;16.87;;
14516;SDS011;7344;50.864;4.362;2022-09-30T02:07:14;18.07;;;15.73;;
14516;SDS011;7344;50.864;4.362;2022-09-30T02:09:49;22.57;;;17.13;;
14516;SDS011;7344;50.864;4.362;2022-09-30T02:12:20;20.30;;;17.47;;
14516;SDS011;7344;50.864;4.362;2022-09-30T02:14:52;20.47;;;18.00;;
14516;SDS011;7344;50.864;4.362;2022-09-30T02:17:27;24.33;;;17.67;;
14516;SDS011;7344;50.864;4.362;2022-09-30T02:19:58;21.17;;;18.63;;
14516;SDS011;7344;50.864;4.362;2022-09-30T02:22:41;21.83;;;18.43;;
14516;SDS011;7344;50.864;4.362;2022-09-30T02:25:11;22.13;;;17.70;;
14516;SDS011;7344;50.864;4.362;2022-09-30T02:27:45;24.10;;;18.57;;
14516;SDS011;7344;50.864;4.362;2022-09-30T02:30:17;22.87;;;17.47;;
14516;SDS011;7344;50.864;4.362;2022-09-30T02:32:45;20.57;;;18.37;;
14516;SDS011;7344;50.864;4.362;2022-09-30T02:37:48;21.57;;;18.67;;
14516;SDS011;7344;50.864;4.362;2022-09-30T02:40:26;24.10;;;18.87;;
14516;SDS011;7344;50.864;4.362;2022-09-30T02:42:59;24.83;;;19.83;;
14516;SDS011;7344;50.864;4.362;2022-09-30T02:45:27;23.60;;;19.10;;
14516;SDS011;7344;50.864;4.362;2022-09-30T02:50:53;23.37;;;19.13;;
14516;SDS011;7344;50.864;4.362;2022-09-30T02:53:39;21.90;;;19.30;;
14516;SDS011;7344;50.864;4.362;2022-09-30T02:58:38;21.80;;;19.40;;
14516;SDS011;7344;50.864;4.362;2022-09-30T03:01:06;24.63;;;19.30;;
14516;SDS011;7344;50.864;4.362;2022-09-30T03:04:07;27.63;;;20.73;;
14516;SDS011;7344;50.864;4.362;2022-09-30T03:06:29;23.17;;;18.93;;
14516;SDS011;7344;50.864;4.362;2022-09-30T03:08:56;24.87;;;19.40;;
14516;SDS011;7344;50.864;4.362;2022-09-30T03:11:22;25.67;;;20.63;;
14516;SDS011;7344;50.864;4.362;2022-09-30T03:16:32;24.60;;;21.07;;
14516;SDS011;7344;50.864;4.362;2022-09-30T03:28:22;28.47;;;20.47;;
14516;SDS011;7344;50.864;4.362;2022-09-30T03:31:23;26.30;;;19.77;;
14516;SDS011;7344;50.864;4.362;2022-09-30T03:33:59;27.40;;;21.17;;
14516;SDS011;7344;50.864;4.362;2022-09-30T03:36:44;28.47;;;22.57;;
14516;SDS011;7344;50.864;4.362;2022-09-30T03:39:29;25.60;;;20.43;;
14516;SDS011;7344;50.864;4.362;2022-09-30T03:42:40;26.00;;;21.47;;
14516;SDS011;7344;50.864;4.362;2022-09-30T03:47:44;27.57;;;22.00;;
14516;SDS011;7344;50.864;4.362;2022-09-30T03:50:14;30.13;;;21.43;;
14516;SDS011;7344;50.864;4.362;2022-09-30T03:52:42;27.40;;;21.47;;
14516;SDS011;7344;50.864;4.362;2022-09-30T03:55:08;30.93;;;22.03;;
14516;SDS011;7344;50.864;4.362;2022-09-30T03:57:35;28.57;;;22.83;;
14516;SDS011;7344;50.864;4.362;2022-09-30T04:00:03;29.67;;;22.37;;
14516;SDS011;7344;50.864;4.362;2022-09-30T04:02:30;27.20;;;22.90;;
14516;SDS011;7344;50.864;4.362;2022-09-30T04:04:56;27.53;;;21.80;;
14516;SDS011;7344;50.864;4.362;2022-09-30T04:07:23;27.53;;;21.43;;
14516;SDS011;7344;50.864;4.362;2022-09-30T04:09:49;28.23;;;21.07;;
14516;SDS011;7344;50.864;4.362;2022-09-30T04:12:14;26.70;;;21.90;;
14516;SDS011;7344;50.864;4.362;2022-09-30T04:14:40;30.33;;;22.67;;
14516;SDS011;7344;50.864;4.362;2022-09-30T04:17:05;26.40;;;21.27;;
14516;SDS011;7344;50.864;4.362;2022-09-30T04:19:31;27.73;;;23.60;;
14516;SDS011;7344;50.864;4.362;2022-09-30T04:22:04;27.43;;;23.10;;
14516;SDS011;7344;50.864;4.362;2022-09-30T04:24:30;30.63;;;24.63;;
14516;SDS011;7344;50.864;4.362;2022-09-30T04:26:56;29.80;;;24.80;;
14516;SDS011;7344;50.864;4.362;2022-09-30T04:29:22;30.27;;;23.63;;
14516;SDS011;7344;50.864;4.362;2022-09-30T04:31:48;26.80;;;23.67;;
14516;SDS011;7344;50.864;4.362;2022-09-30T04:34:13;34.67;;;25.10;;
14516;SDS011;7344;50.864;4.362;2022-09-30T04:36:39;36.13;;;25.30;;
14516;SDS011;7344;50.864;4.362;2022-09-30T04:39:04;32.13;;;25.83;;
14516;SDS011;7344;50.864;4.362;2022-09-30T04:41:31;33.97;;;26.30;;
14516;SDS011;7344;50.864;4.362;2022-09-30T04:43:58;33.47;;;26.97;;
14516;SDS011;7344;50.864;4.362;2022-09-30T04:46:24;30.83;;;26.10;;
14516;SDS011;7344;50.864;4.362;2022-09-30T04:48:50;36.87;;;27.13;;
14516;SDS011;7344;50.864;4.362;2022-09-30T04:51:17;34.70;;;27.87;;
14516;SDS011;7344;50.864;4.362;2022-09-30T04:53:44;38.77;;;27.37;;
14516;SDS011;7344;50.864;4.362;2022-09-30T04:56:11;36.67;;;27.43;;
14516;SDS011;7344;50.864;4.362;2022-09-30T04:58:37;35.80;;;27.67;;
14516;SDS011;7344;50.864;4.362;2022-09-30T05:01:06;33.73;;;26.20;;
14516;SDS011;7344;50.864;4.362;2022-09-30T05:03:34;36.33;;;26.17;;
14516;SDS011;7344;50.864;4.362;2022-09-30T05:06:00;34.90;;;23.90;;
14516;SDS011;7344;50.864;4.362;2022-09-30T05:08:26;33.83;;;24.73;;
14516;SDS011;7344;50.864;4.362;2022-09-30T05:10:52;31.23;;;25.07;;
14516;SDS011;7344;50.864;4.362;2022-09-30T05:13:22;29.17;;;24.87;;
14516;SDS011;7344;50.864;4.362;2022-09-30T05:15:56;33.37;;;26.50;;
14516;SDS011;7344;50.864;4.362;2022-09-30T05:18:21;31.27;;;25.67;;
14516;SDS011;7344;50.864;4.362;2022-09-30T05:20:48;31.70;;;25.60;;
14516;SDS011;7344;50.864;4.362;2022-09-30T05:23:15;32.80;;;24.90;;
14516;SDS011;7344;50.864;4.362;2022-09-30T05:25:41;33.03;;;24.67;;
14516;SDS011;7344;50.864;4.362;2022-09-30T05:28:06;32.30;;;25.07;;
14516;SDS011;7344;50.864;4.362;2022-09-30T05:30:32;32.73;;;26.50;;
14516;SDS011;7344;50.864;4.362;2022-09-30T05:32:58;31.03;;;25.97;;
14516;SDS011;7344;50.864;4.362;2022-09-30T05:35:23;34.33;;;25.27;;
14516;SDS011;7344;50.864;4.362;2022-09-30T05:37:49;31.97;;;25.87;;
14516;SDS011;7344;50.864;4.362;2022-09-30T05:40:15;32.83;;;26.43;;
14516;SDS011;7344;50.864;4.362;2022-09-30T05:42:40;32.93;;;26.27;;
14516;SDS011;7344;50.864;4.362;2022-09-30T05:45:07;36.53;;;27.47;;
14516;SDS011;7344;50.864;4.362;2022-09-30T05:47:33;38.43;;;27.30;;
14516;SDS011;7344;50.864;4.362;2022-09-30T05:49:58;38.20;;;27.70;;
14516;SDS011;7344;50.864;4.362;2022-09-30T05:52:24;33.10;;;26.80;;
14516;SDS011;7344;50.864;4.362;2022-09-30T05:54:50;37.43;;;26.87;;
14516;SDS011;7344;50.864;4.362;2022-09-30T05:57:16;36.23;;;27.13;;
14516;SDS011;7344;50.864;4.362;2022-09-30T05:59:42;38.00;;;27.57;;
14516;SDS011;7344;50.864;4.362;2022-09-30T06:02:08;38.77;;;28.20;;
14516;SDS011;7344;50.864;4.362;2022-09-30T06:04:34;33.93;;;25.97;;
14516;SDS011;7344;50.864;4.362;2022-09-30T06:06:59;33.57;;;26.13;;
14516;SDS011;7344;50.864;4.362;2022-09-30T06:09:25;33.37;;;26.20;;
14516;SDS011;7344;50.864;4.362;2022-09-30T06:11:51;36.33;;;24.93;;
14516;SDS011;7344;50.864;4.362;2022-09-30T06:14:18;40.47;;;26.37;;
14516;SDS011;7344;50.864;4.362;2022-09-30T06:16:44;37.27;;;24.73;;
14516;SDS011;7344;50.864;4.362;2022-09-30T06:19:09;33.13;;;25.27;;
14516;SDS011;7344;50.864;4.362;2022-09-30T06:21:35;35.40;;;23.83;;
14516;SDS011;7344;50.864;4.362;2022-09-30T06:24:01;32.93;;;24.27;;
14516;SDS011;7344;50.864;4.362;2022-09-30T06:26:27;34.07;;;23.37;;
14516;SDS011;7344;50.864;4.362;2022-09-30T06:28:52;32.33;;;23.80;;
14516;SDS011;7344;50.864;4.362;2022-09-30T06:31:18;31.70;;;23.47;;
14516;SDS011;7344;50.864;4.362;2022-09-30T06:33:44;32.03;;;22.93;;
14516;SDS011;7344;50.864;4.362;2022-09-30T06:36:10;32.70;;;22.93;;
14516;SDS011;7344;50.864;4.362;2022-09-30T06:38:36;26.57;;;22.13;;
14516;SDS011;7344;50.864;4.362;2022-09-30T06:41:03;31.50;;;21.83;;
14516;SDS011;7344;50.864;4.362;2022-09-30T06:43:30;27.27;;;21.33;;
14516;SDS011;7344;50.864;4.362;2022-09-30T06:45:55;25.30;;;20.63;;
14516;SDS011;7344;50.864;4.362;2022-09-30T06:48:21;23.97;;;19.63;;
14516;SDS011;7344;50.864;4.362;2022-09-30T06:50:47;27.30;;;19.90;;
14516;SDS011;7344;50.864;4.362;2022-09-30T06:53:13;22.33;;;17.97;;
14516;SDS011;7344;50.864;4.362;2022-09-30T06:55:38;24.80;;;17.60;;
14516;SDS011;7344;50.864;4.362;2022-09-30T06:58:05;22.30;;;15.77;;
14516;SDS011;7344;50.864;4.362;2022-09-30T07:00:33;19.67;;;14.23;;
14516;SDS011;7344;50.864;4.362;2022-09-30T07:03:00;16.07;;;14.13;;
14516;SDS011;7344;50.864;4.362;2022-09-30T07:05:26;19.47;;;14.50;;
14516;SDS011;7344;50.864;4.362;2022-09-30T07:07:52;17.73;;;14.50;;
14516;SDS011;7344;50.864;4.362;2022-09-30T07:10:18;16.67;;;13.65;;
14516;SDS011;7344;50.864;4.362;2022-09-30T07:12:47;15.35;;;13.15;;
14516;SDS011;7344;50.864;4.362;2022-09-30T07:15:15;18.42;;;13.88;;
14516;SDS011;7344;50.864;4.362;2022-09-30T07:17:40;17.30;;;13.13;;
14516;SDS011;7344;50.864;4.362;2022-09-30T07:20:07;16.00;;;13.38;;
14516;SDS011;7344;50.864;4.362;2022-09-30T07:22:32;17.70;;;13.63;;
14516;SDS011;7344;50.864;4.362;2022-09-30T07:24:59;15.57;;;13.48;;
14516;SDS011;7344;50.864;4.362;2022-09-30T07:27:28;18.73;;;12.80;;
14516;SDS011;7344;50.864;4.362;2022-09-30T07:29:55;14.00;;;12.50;;
14516;SDS011;7344;50.864;4.362;2022-09-30T07:32:21;14.98;;;12.82;;
14516;SDS011;7344;50.864;4.362;2022-09-30T07:34:47;17.60;;;12.10;;
14516;SDS011;7344;50.864;4.362;2022-09-30T07:37:14;15.77;;;12.82;;
14516;SDS011;7344;50.864;4.362;2022-09-30T07:39:41;16.20;;;11.88;;
14516;SDS011;7344;50.864;4.362;2022-09-30T07:42:08;13.95;;;11.45;;
14516;SDS011;7344;50.864;4.362;2022-09-30T07:44:35;21.77;;;13.80;;
14516;SDS011;7344;50.864;4.362;2022-09-30T07:47:06;15.45;;;11.63;;
14516;SDS011;7344;50.864;4.362;2022-09-30T07:49:33;12.45;;;11.23;;
14516;SDS011;7344;50.864;4.362;2022-09-30T07:51:59;13.05;;;11.73;;
14516;SDS011;7344;50.864;4.362;2022-09-30T07:54:26;13.05;;;11.20;;
14516;SDS011;7344;50.864;4.362;2022-09-30T07:56:54;13.27;;;11.25;;
14516;SDS011;7344;50.864;4.362;2022-09-30T07:59:21;17.45;;;11.90;;
14516;SDS011;7344;50.864;4.362;2022-09-30T08:01:47;15.52;;;11.73;;
14516;SDS011;7344;50.864;4.362;2022-09-30T08:04:13;17.20;;;11.73;;
14516;SDS011;7344;50.864;4.362;2022-09-30T08:06:42;19.05;;;11.55;;
14516;SDS011;7344;50.864;4.362;2022-09-30T08:09:14;12.93;;;10.68;;
14516;SDS011;7344;50.864;4.362;2022-09-30T08:11:41;13.43;;;10.70;;
14516;SDS011;7344;50.864;4.362;2022-09-30T08:14:07;14.93;;;10.40;;
14516;SDS011;7344;50.864;4.362;2022-09-30T08:16:37;13.95;;;11.50;;
14516;SDS011;7344;50.864;4.362;2022-09-30T08:19:03;12.70;;;9.75;;
14516;SDS011;7344;50.864;4.362;2022-09-30T08:21:28;14.95;;;9.93;;
14516;SDS011;7344;50.864;4.362;2022-09-30T08:23:54;10.52;;;9.43;;
14516;SDS011;7344;50.864;4.362;2022-09-30T08:26:21;13.48;;;9.18;;
14516;SDS011;7344;50.864;4.362;2022-09-30T08:28:46;13.10;;;9.88;;
14516;SDS011;7344;50.864;4.362;2022-09-30T08:33:40;13.73;;;10.02;;
14516;SDS011;7344;50.864;4.362;2022-09-30T08:36:07;14.80;;;9.57;;
14516;SDS011;7344;50.864;4.362;2022-09-30T08:38:34;10.27;;;9.25;;
14516;SDS011;7344;50.864;4.362;2022-09-30T08:46:07;11.90;;;10.23;;
14516;SDS011;7344;50.864;4.362;2022-09-30T08:53:42;11.25;;;9.00;;
14516;SDS011;7344;50.864;4.362;2022-09-30T08:56:18;15.73;;;9.50;;
14516;SDS011;7344;50.864;4.362;2022-09-30T08:58:50;17.35;;;9.75;;
14516;SDS011;7344;50.864;4.362;2022-09-30T09:03:55;11.93;;;9.05;;
14516;SDS011;7344;50.864;4.362;2022-09-30T09:09:38;12.88;;;8.20;;
14516;SDS011;7344;50.864;4.362;2022-09-30T09:20:14;9.30;;;7.90;;
14516;SDS011;7344;50.864;4.362;2022-09-30T09:22:42;9.07;;;7.75;;
14516;SDS011;7344;50.864;4.362;2022-09-30T09:25:11;10.60;;;7.95;;
14516;SDS011;7344;50.864;4.362;2022-09-30T09:30:14;9.10;;;7.60;;
14516;SDS011;7344;50.864;4.362;2022-09-30T09:32:44;12.52;;;7.80;;
14516;SDS011;7344;50.864;4.362;2022-09-30T09:38:04;10.00;;;6.88;;
14516;SDS011;7344;50.864;4.362;2022-09-30T09:43:50;8.75;;;6.28;;
14516;SDS011;7344;50.864;4.362;2022-09-30T09:46:31;6.22;;;5.63;;
14516;SDS011;7344;50.864;4.362;2022-09-30T09:54:40;6.20;;;5.70;;
14516;SDS011;7344;50.864;4.362;2022-09-30T09:57:08;7.05;;;5.40;;
14516;SDS011;7344;50.864;4.362;2022-09-30T09:59:36;9.98;;;5.00;;
14516;SDS011;7344;50.864;4.362;2022-09-30T10:02:10;6.10;;;4.70;;
14516;SDS011;7344;50.864;4.362;2022-09-30T10:04:48;8.52;;;4.47;;
14516;SDS011;7344;50.864;4.362;2022-09-30T10:07:23;5.30;;;4.28;;
14516;SDS011;7344;50.864;4.362;2022-09-30T10:09:54;7.05;;;4.63;;
14516;SDS011;7344;50.864;4.362;2022-09-30T10:12:31;9.05;;;4.45;;
14516;SDS011;7344;50.864;4.362;2022-09-30T10:14:58;4.72;;;4.32;;
14516;SDS011;7344;50.864;4.362;2022-09-30T10:19:54;5.50;;;3.70;;
14516;SDS011;7344;50.864;4.362;2022-09-30T10:22:28;5.50;;;4.05;;
14516;SDS011;7344;50.864;4.362;2022-09-30T10:28:00;4.38;;;4.03;;
14516;SDS011;7344;50.864;4.362;2022-09-30T10:33:14;7.63;;;4.60;;
14516;SDS011;7344;50.864;4.362;2022-09-30T10:35:52;5.68;;;4.75;;
14516;SDS011;7344;50.864;4.362;2022-09-30T10:38:29;4.28;;;3.72;;
14516;SDS011;7344;50.864;4.362;2022-09-30T10:40:58;4.50;;;4.10;;
14516;SDS011;7344;50.864;4.362;2022-09-30T10:43:25;6.28;;;4.13;;
14516;SDS011;7344;50.864;4.362;2022-09-30T10:45:58;5.05;;;4.65;;
14516;SDS011;7344;50.864;4.362;2022-09-30T10:48:28;7.47;;;4.80;;
14516;SDS011;7344;50.864;4.362;2022-09-30T10:50:58;8.27;;;5.00;;
14516;SDS011;7344;50.864;4.362;2022-09-30T10:53:33;6.28;;;4.97;;
14516;SDS011;7344;50.864;4.362;2022-09-30T10:56:00;8.18;;;5.30;;
14516;SDS011;7344;50.864;4.362;2022-09-30T11:01:24;5.25;;;4.70;;
14516;SDS011;7344;50.864;4.362;2022-09-30T11:04:26;5.80;;;5.03;;
14516;SDS011;7344;50.864;4.362;2022-09-30T11:07:01;5.40;;;4.03;;
14516;SDS011;7344;50.864;4.362;2022-09-30T11:09:43;6.70;;;4.38;;
14516;SDS011;7344;50.864;4.362;2022-09-30T11:12:27;4.50;;;4.10;;
14516;SDS011;7344;50.864;4.362;2022-09-30T11:15:08;5.65;;;3.65;;
14516;SDS011;7344;50.864;4.362;2022-09-30T11:17:48;4.50;;;3.90;;
14516;SDS011;7344;50.864;4.362;2022-09-30T11:20:42;12.00;;;4.22;;
14516;SDS011;7344;50.864;4.362;2022-09-30T11:23:25;4.47;;;3.72;;
14516;SDS011;7344;50.864;4.362;2022-09-30T11:31:05;5.55;;;3.72;;
14516;SDS011;7344;50.864;4.362;2022-09-30T11:41:35;5.22;;;4.38;;
14516;SDS011;7344;50.864;4.362;2022-09-30T11:44:23;5.10;;;3.78;;
14516;SDS011;7344;50.864;4.362;2022-09-30T11:52:38;8.20;;;4.35;;
14516;SDS011;7344;50.864;4.362;2022-09-30T11:57:50;6.95;;;4.80;;
14516;SDS011;7344;50.864;4.362;2022-09-30T12:00:41;6.13;;;4.75;;
14516;SDS011;7344;50.864;4.362;2022-09-30T12:05:55;5.20;;;4.70;;
14516;SDS011;7344;50.864;4.362;2022-09-30T12:08:45;6.18;;;4.60;;
14516;SDS011;7344;50.864;4.362;2022-09-30T12:11:17;5.47;;;4.30;;
14516;SDS011;7344;50.864;4.362;2022-09-30T12:13:53;5.32;;;4.80;;
14516;SDS011;7344;50.864;4.362;2022-09-30T12:16:23;5.22;;;4.53;;
14516;SDS011;7344;50.864;4.362;2022-09-30T12:18:58;8.02;;;4.97;;
14516;SDS011;7344;50.864;4.362;2022-09-30T12:21:38;5.10;;;4.60;;
14516;SDS011;7344;50.864;4.362;2022-09-30T12:26:46;7.20;;;4.47;;
14516;SDS011;7344;50.864;4.362;2022-09-30T12:41:28;12.80;;;5.13;;
14516;SDS011;7344;50.864;4.362;2022-09-30T12:47:28;6.70;;;4.45;;
14516;SDS011;7344;50.864;4.362;2022-09-30T12:50:14;6.43;;;5.25;;
14516;SDS011;7344;50.864;4.362;2022-09-30T12:52:43;5.40;;;4.65;;
14516;SDS011;7344;50.864;4.362;2022-09-30T12:55:21;5.72;;;5.22;;
14516;SDS011;7344;50.864;4.362;2022-09-30T12:57:52;6.35;;;5.22;;
14516;SDS011;7344;50.864;4.362;2022-09-30T13:00:20;7.72;;;4.90;;
14516;SDS011;7344;50.864;4.362;2022-09-30T13:02:58;5.95;;;5.10;;
14516;SDS011;7344;50.864;4.362;2022-09-30T13:10:30;6.60;;;4.90;;
14516;SDS011;7344;50.864;4.362;2022-09-30T13:15:38;7.75;;;4.57;;
14516;SDS011;7344;50.864;4.362;2022-09-30T13:26:04;5.93;;;4.55;;
14516;SDS011;7344;50.864;4.362;2022-09-30T13:31:32;7.55;;;4.63;;
14516;SDS011;7344;50.864;4.362;2022-09-30T13:34:24;5.55;;;4.75;;
14516;SDS011;7344;50.864;4.362;2022-09-30T13:37:01;5.38;;;4.38;;
14516;SDS011;7344;50.864;4.362;2022-09-30T13:39:47;5.50;;;5.00;;
14516;SDS011;7344;50.864;4.362;2022-09-30T13:47:43;5.87;;;5.27;;
14516;SDS011;7344;50.864;4.362;2022-09-30T13:52:52;5.87;;;5.27;;
14516;SDS011;7344;50.864;4.362;2022-09-30T13:55:26;5.87;;;5.33;;
14516;SDS011;7344;50.864;4.362;2022-09-30T13:58:09;7.60;;;4.85;;
14516;SDS011;7344;50.864;4.362;2022-09-30T14:23:24;4.55;;;3.92;;
14516;SDS011;7344;50.864;4.362;2022-09-30T14:26:03;4.40;;;4.00;;
14516;SDS011;7344;50.864;4.362;2022-09-30T14:28:46;4.97;;;3.55;;
14516;SDS011;7344;50.864;4.362;2022-09-30T14:31:43;5.18;;;3.90;;
14516;SDS011;7344;50.864;4.362;2022-09-30T14:34:13;4.73;;;3.40;;
14516;SDS011;7344;50.864;4.362;2022-09-30T14:36:41;4.27;;;3.70;;
14516;SDS011;7344;50.864;4.362;2022-09-30T14:39:15;7.43;;;3.97;;
14516;SDS011;7344;50.864;4.362;2022-09-30T14:41:50;4.60;;;3.50;;
14516;SDS011;7344;50.864;4.362;2022-09-30T14:44:20;5.97;;;3.67;;
14516;SDS011;7344;50.864;4.362;2022-09-30T14:46:48;5.83;;;3.30;;
14516;SDS011;7344;50.864;4.362;2022-09-30T14:49:16;5.07;;;3.43;;
14516;SDS011;7344;50.864;4.362;2022-09-30T14:51:46;4.80;;;3.10;;
14516;SDS011;7344;50.864;4.362;2022-09-30T14:54:25;4.18;;;3.45;;
14516;SDS011;7344;50.864;4.362;2022-09-30T14:56:54;5.43;;;3.90;;
14516;SDS011;7344;50.864;4.362;2022-09-30T14:59:22;3.95;;;3.40;;
14516;SDS011;7344;50.864;4.362;2022-09-30T15:01:53;4.85;;;3.35;;
14516;SDS011;7344;50.864;4.362;2022-09-30T15:04:25;3.97;;;3.37;;
14516;SDS011;7344;50.864;4.362;2022-09-30T15:06:56;4.50;;;3.30;;
14516;SDS011;7344;50.864;4.362;2022-09-30T15:09:35;3.23;;;2.77;;
14516;SDS011;7344;50.864;4.362;2022-09-30T15:12:06;3.80;;;2.87;;
14516;SDS011;7344;50.864;4.362;2022-09-30T15:14:46;3.17;;;2.97;;
14516;SDS011;7344;50.864;4.362;2022-09-30T15:17:17;4.40;;;3.50;;
14516;SDS011;7344;50.864;4.362;2022-09-30T15:19:45;3.50;;;3.20;;
14516;SDS011;7344;50.864;4.362;2022-09-30T15:22:12;4.20;;;3.10;;
14516;SDS011;7344;50.864;4.362;2022-09-30T15:24:38;7.37;;;3.30;;
14516;SDS011;7344;50.864;4.362;2022-09-30T15:27:06;3.20;;;3.00;;
14516;SDS011;7344;50.864;4.362;2022-09-30T15:29:53;6.30;;;3.50;;
14516;SDS011;7344;50.864;4.362;2022-09-30T15:32:23;5.40;;;4.90;;
14516;SDS011;7344;50.864;4.362;2022-09-30T15:34:54;5.13;;;3.90;;
14516;SDS011;7344;50.864;4.362;2022-09-30T15:37:23;9.40;;;5.27;;
14516;SDS011;7344;50.864;4.362;2022-09-30T15:39:50;8.40;;;4.20;;
14516;SDS011;7344;50.864;4.362;2022-09-30T15:42:36;6.73;;;3.60;;
14516;SDS011;7344;50.864;4.362;2022-09-30T15:45:28;7.67;;;3.57;;
14516;SDS011;7344;50.864;4.362;2022-09-30T15:50:57;5.33;;;3.47;;
14516;SDS011;7344;50.864;4.362;2022-09-30T15:53:28;3.50;;;3.17;;
14516;SDS011;7344;50.864;4.362;2022-09-30T15:55:55;5.90;;;3.53;;
14516;SDS011;7344;50.864;4.362;2022-09-30T16:01:08;4.93;;;3.67;;
14516;SDS011;7344;50.864;4.362;2022-09-30T16:03:34;4.40;;;3.87;;
14516;SDS011;7344;50.864;4.362;2022-09-30T16:06:08;5.97;;;3.70;;
14516;SDS011;7344;50.864;4.362;2022-09-30T16:08:43;3.80;;;3.47;;
14516;SDS011;7344;50.864;4.362;2022-09-30T16:11:17;4.90;;;4.07;;
14516;SDS011;7344;50.864;4.362;2022-09-30T16:13:49;7.43;;;3.87;;
14516;SDS011;7344;50.864;4.362;2022-09-30T16:16:19;5.40;;;3.57;;
14516;SDS011;7344;50.864;4.362;2022-09-30T16:18:47;4.17;;;3.83;;
14516;SDS011;7344;50.864;4.362;2022-09-30T16:26:49;5.33;;;3.77;;
14516;SDS011;7344;50.864;4.362;2022-09-30T16:29:15;3.93;;;3.20;;
14516;SDS011;7344;50.864;4.362;2022-09-30T16:31:42;3.80;;;3.50;;
14516;SDS011;7344;50.864;4.362;2022-09-30T16:36:45;3.17;;;2.97;;
14516;SDS011;7344;50.864;4.362;2022-09-30T16:39:12;5.07;;;3.77;;
14516;SDS011;7344;50.864;4.362;2022-09-30T16:41:39;4.60;;;3.27;;
14516;SDS011;7344;50.864;4.362;2022-09-30T16:44:05;3.03;;;2.70;;
14516;SDS011;7344;50.864;4.362;2022-09-30T16:46:31;2.90;;;2.70;;
14516;SDS011;7344;50.864;4.362;2022-09-30T16:49:02;3.90;;;3.40;;
14516;SDS011;7344;50.864;4.362;2022-09-30T16:51:39;5.57;;;3.33;;
14516;SDS011;7344;50.864;4.362;2022-09-30T16:54:04;4.63;;;3.20;;
14516;SDS011;7344;50.864;4.362;2022-09-30T16:56:30;6.10;;;2.97;;
14516;SDS011;7344;50.864;4.362;2022-09-30T16:58:56;3.77;;;2.97;;
14516;SDS011;7344;50.864;4.362;2022-09-30T17:01:22;5.60;;;3.80;;
14516;SDS011;7344;50.864;4.362;2022-09-30T17:03:49;3.43;;;3.03;;
14516;SDS011;7344;50.864;4.362;2022-09-30T17:06:17;9.77;;;7.37;;
14516;SDS011;7344;50.864;4.362;2022-09-30T17:08:47;10.73;;;9.60;;
14516;SDS011;7344;50.864;4.362;2022-09-30T17:11:13;5.90;;;3.70;;
14516;SDS011;7344;50.864;4.362;2022-09-30T17:13:39;3.13;;;2.93;;
14516;SDS011;7344;50.864;4.362;2022-09-30T17:16:05;3.13;;;2.83;;
14516;SDS011;7344;50.864;4.362;2022-09-30T17:18:31;3.87;;;3.47;;
14516;SDS011;7344;50.864;4.362;2022-09-30T17:20:57;4.57;;;3.70;;
14516;SDS011;7344;50.864;4.362;2022-09-30T17:23:24;5.07;;;3.27;;
14516;SDS011;7344;50.864;4.362;2022-09-30T17:25:50;3.60;;;3.40;;
14516;SDS011;7344;50.864;4.362;2022-09-30T17:28:16;4.47;;;3.53;;
14516;SDS011;7344;50.864;4.362;2022-09-30T17:30:42;3.50;;;3.20;;
14516;SDS011;7344;50.864;4.362;2022-09-30T17:33:11;4.33;;;3.87;;
14516;SDS011;7344;50.864;4.362;2022-09-30T17:35:37;4.93;;;3.50;;
14516;SDS011;7344;50.864;4.362;2022-09-30T17:38:06;4.10;;;3.70;;
14516;SDS011;7344;50.864;4.362;2022-09-30T17:40:33;5.30;;;3.60;;
14516;SDS011;7344;50.864;4.362;2022-09-30T17:43:17;5.13;;;3.97;;
14516;SDS011;7344;50.864;4.362;2022-09-30T17:45:43;5.20;;;4.00;;
14516;SDS011;7344;50.864;4.362;2022-09-30T17:48:10;5.00;;;4.00;;
14516;SDS011;7344;50.864;4.362;2022-09-30T17:50:41;4.30;;;3.47;;
14516;SDS011;7344;50.864;4.362;2022-09-30T17:53:11;4.03;;;3.63;;
14516;SDS011;7344;50.864;4.362;2022-09-30T17:55:38;5.23;;;3.80;;
14516;SDS011;7344;50.864;4.362;2022-09-30T17:58:05;5.10;;;3.90;;
14516;SDS011;7344;50.864;4.362;2022-09-30T18:00:33;3.73;;;3.43;;
14516;SDS011;7344;50.864;4.362;2022-09-30T18:02:59;5.27;;;4.73;;
14516;SDS011;7344;50.864;4.362;2022-09-30T18:05:24;4.40;;;3.93;;
14516;SDS011;7344;50.864;4.362;2022-09-30T18:07:51;8.33;;;3.87;;
14516;SDS011;7344;50.864;4.362;2022-09-30T18:10:19;4.37;;;3.80;;
14516;SDS011;7344;50.864;4.362;2022-09-30T18:12:45;5.20;;;4.70;;
14516;SDS011;7344;50.864;4.362;2022-09-30T18:15:13;4.73;;;4.20;;
14516;SDS011;7344;50.864;4.362;2022-09-30T18:17:40;6.37;;;5.30;;
14516;SDS011;7344;50.864;4.362;2022-09-30T18:20:06;20.13;;;14.10;;
14516;SDS011;7344;50.864;4.362;2022-09-30T18:22:32;5.47;;;4.30;;
14516;SDS011;7344;50.864;4.362;2022-09-30T18:24:57;5.57;;;4.73;;
14516;SDS011;7344;50.864;4.362;2022-09-30T18:27:42;4.40;;;4.00;;
14516;SDS011;7344;50.864;4.362;2022-09-30T18:30:07;23.20;;;12.47;;
14516;SDS011;7344;50.864;4.362;2022-09-30T18:32:35;18.13;;;16.40;;